Time;durP1;ratioP1;P1;durP2;ratioP2;P2;SDS_P1;SDS_P2;PMS_P1;PMS_P2;Temp;Humidity;BMP_temperature;BMP_pressure;BME280_temperature;BME280_humidity;BME280_pressure;Samples;Min_cycle;Max_cycle;Signal;HPM_P1;HPM_P2
2022/01/08 00:00:09;;;;;;;;;;;3.90;99.90;4.50;99747.00;;;;423742;22;93429;-93
2022/01/08 00:00:21;;;;;;;;;;;3.90;99.90;4.50;99749.00;;;;428793;22;83275;-93
2022/01/08 00:00:33;;;;;;;;;;;3.90;99.90;4.60;99743.00;;;;424324;22;93584;-93
2022/01/08 00:00:45;;;;;;;;;;;3.90;99.90;4.50;99749.00;;;;426862;22;82528;-94
2022/01/08 00:00:57;;;;;;;;;;;3.90;99.90;4.60;99750.00;;;;426234;22;94751;-93
2022/01/08 00:01:11;;;;;;;;;;;3.90;99.90;4.60;99739.00;;;;424577;22;83507;-93
2022/01/08 00:01:23;;;;;;;;;;;3.90;99.90;4.70;99746.00;;;;421677;23;94445;-94
2022/01/08 00:01:35;;;;;;;;;;;3.90;99.90;4.70;99743.00;;;;420807;23;83175;-93
2022/01/08 00:01:47;;;;;;;;;;;4.00;99.90;4.70;99737.00;;;;426059;22;94309;-93
2022/01/08 00:01:59;;;;;;;;;;;4.00;99.90;4.70;99744.00;;;;422837;23;83293;-94
2022/01/08 00:02:11;;;;;;;;;;;4.00;99.90;4.60;99747.00;;;;422201;23;92234;-93
2022/01/08 00:02:23;;;;;;;;;;;4.00;99.90;4.50;99740.00;;;;426081;22;83338;-93
2022/01/08 00:02:35;;;;;;;;;;;4.00;99.90;4.50;99741.00;;;;426034;22;94389;-93
2022/01/08 00:02:48;;;;;;;;;;;4.00;99.90;4.50;99740.00;;;;422606;23;83326;-93
2022/01/08 00:03:00;;;;;;;;;;;4.00;99.90;4.60;99734.00;;;;421825;23;93825;-93
2022/01/08 00:03:12;;;;;;;;;;;4.00;99.90;4.60;99731.00;;;;422819;23;82471;-94
2022/01/08 00:03:24;;;;;;;;;;;4.00;99.90;4.60;99742.00;;;;426075;22;92175;-94
2022/01/08 00:03:37;;;;;;;;;;;4.00;99.90;4.50;99742.00;;;;427126;22;83258;-93
2022/01/08 00:03:51;;;;;;;;;;;4.00;99.90;4.60;99738.00;;;;422289;23;91596;-94
2022/01/08 00:04:03;;;;;;;;;;;4.00;99.90;4.60;99739.00;;;;422719;23;83330;-93
2022/01/08 00:04:15;;;;;;;;;;;4.00;99.90;4.50;99749.00;;;;423308;22;93563;-94
2022/01/08 00:04:29;;;;;;;;;;;4.00;99.90;4.50;99740.00;;;;424725;22;82557;-94
2022/01/08 00:04:41;;;;;;;;;;;4.00;99.90;4.50;99740.00;;;;419904;23;94573;-95
2022/01/08 00:04:54;;;;;;;;;;;4.00;99.90;4.60;99735.00;;;;426722;22;82621;-94
2022/01/08 00:05:06;;;;;;;;;;;4.00;99.90;4.50;99740.00;;;;424231;22;94839;-95
2022/01/08 00:05:18;;;;;;;;;;;4.00;99.90;4.50;99735.00;;;;426699;22;82532;-94
2022/01/08 00:05:30;;;;;;;;;;;4.00;99.90;4.50;99737.00;;;;421993;23;93357;-94
2022/01/08 00:05:42;;;;;;;;;;;4.00;99.90;4.40;99747.00;;;;422863;23;82378;-94
2022/01/08 00:05:56;;;;;;;;;;;3.90;99.90;4.50;99728.00;;;;419832;23;94222;-95
2022/01/08 00:06:08;;;;;;;;;;;4.00;99.90;4.60;99736.00;;;;422541;23;82589;-93
2022/01/08 00:06:20;;;;;;;;;;;4.00;99.90;4.60;99736.00;;;;423282;22;92495;-95
2022/01/08 00:06:32;;;;;;;;;;;4.00;99.90;4.60;99739.00;;;;424556;22;83488;-94
2022/01/08 00:06:44;;;;;;;;;;;4.00;99.90;4.50;99733.00;;;;419524;23;93466;-94
2022/01/08 00:06:56;;;;;;;;;;;4.00;99.90;4.50;99731.00;;;;423364;23;83231;-93
2022/01/08 00:07:08;;;;;;;;;;;3.90;99.90;4.50;99735.00;;;;425743;22;96234;-93
2022/01/08 00:07:20;;;;;;;;;;;4.00;99.90;4.50;99743.00;;;;427361;22;83362;-94
2022/01/08 00:07:32;;;;;;;;;;;4.00;99.90;4.50;99738.00;;;;421557;23;96510;-94
2022/01/08 00:07:45;;;;;;;;;;;4.00;99.90;4.50;99737.00;;;;425230;22;82345;-93
2022/01/08 00:07:56;;;;;;;;;;;4.00;99.90;4.60;99732.00;;;;424040;22;93038;-95
2022/01/08 00:08:08;;;;;;;;;;;4.00;99.90;4.70;99734.00;;;;421009;23;83072;-93
2022/01/08 00:08:20;;;;;;;;;;;4.00;99.90;4.60;99732.00;;;;421648;23;94770;-93
2022/01/08 00:08:32;;;;;;;;;;;4.00;99.90;4.50;99747.00;;;;422568;23;82346;-93
2022/01/08 00:08:44;;;;;;;;;;;4.00;99.90;4.50;99733.00;;;;422286;23;94691;-92
2022/01/08 00:08:56;;;;;;;;;;;4.00;99.90;4.50;99740.00;;;;421188;23;83240;-94
2022/01/08 00:09:08;;;;;;;;;;;4.00;99.90;4.50;99737.00;;;;426290;22;94301;-93
2022/01/08 00:09:19;;;;;;;;;;;3.90;99.90;4.50;99729.00;;;;423212;23;82398;-93
2022/01/08 00:09:31;;;;;;;;;;;4.00;99.90;4.60;99734.00;;;;423599;22;94402;-93
2022/01/08 00:09:43;;;;;;;;;;;4.00;99.90;4.60;99733.00;;;;425283;22;82177;-93
2022/01/08 00:09:55;;;;;;;;;;;4.00;99.90;4.60;99736.00;;;;422186;23;93205;-93
2022/01/08 00:10:07;;;;;;;;;;;4.00;99.90;4.60;99743.00;;;;424669;22;82476;-93
2022/01/08 00:10:19;;;;;;;;;;;4.00;99.90;4.70;99734.00;;;;421810;23;93659;-93
2022/01/08 00:10:31;;;;;;;;;;;4.00;99.90;4.70;99745.00;;;;422874;23;82268;-93
2022/01/08 00:10:43;;;;;;;;;;;4.00;99.90;4.60;99737.00;;;;423300;22;92207;-93
2022/01/08 00:10:55;;;;;;;;;;;4.00;99.90;4.70;99740.00;;;;424729;22;83351;-93
2022/01/08 00:11:08;;;;;;;;;;;4.00;99.90;4.60;99737.00;;;;423554;22;96307;-93
2022/01/08 00:11:24;;;;;;;;;;;4.00;99.90;4.60;99738.00;;;;422906;23;82290;-94
2022/01/08 00:11:36;;;;;;;;;;;4.00;99.90;4.60;99736.00;;;;427788;22;95275;-94
2022/01/08 00:11:48;;;;;;;;;;;4.00;99.90;4.60;99745.00;;;;428754;22;82319;-92
2022/01/08 00:12:00;;;;;;;;;;;4.00;99.90;4.50;99733.00;;;;423904;22;93835;-93
2022/01/08 00:12:13;;;;;;;;;;;4.00;99.90;4.50;99727.00;;;;420849;23;82473;-93
2022/01/08 00:12:25;;;;;;;;;;;4.00;99.90;4.50;99730.00;;;;421831;23;94446;-93
2022/01/08 00:12:37;;;;;;;;;;;4.00;99.90;4.50;99725.00;;;;426739;22;83345;-94
2022/01/08 00:12:50;;;;;;;;;;;4.00;99.90;4.40;99726.00;;;;425750;22;95566;-93
2022/01/08 00:13:05;;;;;;;;;;;4.00;99.90;4.50;99729.00;;;;422906;23;82383;-93
2022/01/08 00:13:17;;;;;;;;;;;4.00;99.90;4.50;99732.00;;;;421128;23;96711;-93
2022/01/08 00:13:28;;;;;;;;;;;4.00;99.90;4.50;99722.00;;;;424713;22;83425;-93
2022/01/08 00:13:40;;;;;;;;;;;3.90;99.90;4.50;99732.00;;;;425652;22;95477;-94
2022/01/08 00:13:52;;;;;;;;;;;3.90;99.90;4.50;99732.00;;;;424406;22;83383;-93
2022/01/08 00:14:05;;;;;;;;;;;4.00;99.90;4.50;99728.00;;;;422192;23;94180;-93
2022/01/08 00:14:20;;;;;;;;;;;4.00;99.90;4.40;99728.00;;;;425418;22;82261;-93
2022/01/08 00:14:32;;;;;;;;;;;4.00;99.90;4.40;99729.00;;;;424282;22;93916;-93
2022/01/08 00:14:44;;;;;;;;;;;4.00;99.90;4.50;99733.00;;;;424739;22;83428;-95
2022/01/08 00:14:56;;;;;;;;;;;3.90;99.90;4.50;99730.00;;;;424368;22;91661;-93
2022/01/08 00:15:08;;;;;;;;;;;3.90;99.90;4.50;99724.00;;;;426991;22;83113;-93
2022/01/08 00:15:22;;;;;;;;;;;3.90;99.90;4.50;99721.00;;;;422223;23;93069;-93
2022/01/08 00:15:34;;;;;;;;;;;4.00;99.90;4.50;99727.00;;;;426676;22;82426;-94
2022/01/08 00:15:46;;;;;;;;;;;3.90;99.90;4.40;99723.00;;;;423869;22;94165;-93
2022/01/08 00:15:57;;;;;;;;;;;3.90;99.90;4.50;99730.00;;;;426820;22;82441;-94
2022/01/08 00:16:09;;;;;;;;;;;3.90;99.90;4.50;99723.00;;;;424291;22;93052;-94
2022/01/08 00:16:21;;;;;;;;;;;3.90;99.90;4.50;99726.00;;;;423016;23;82391;-94
2022/01/08 00:16:34;;;;;;;;;;;3.90;99.90;4.50;99716.00;;;;423487;22;96617;-94
2022/01/08 00:16:45;;;;;;;;;;;3.90;99.90;4.50;99719.00;;;;421748;23;83526;-94
2022/01/08 00:16:58;;;;;;;;;;;3.90;99.90;4.50;99722.00;;;;421527;23;96511;-93
2022/01/08 00:17:10;;;;;;;;;;;3.90;99.90;4.50;99729.00;;;;424735;22;83403;-94
2022/01/08 00:17:23;;;;;;;;;;;3.90;99.90;4.60;99731.00;;;;423381;22;94715;-94
2022/01/08 00:17:35;;;;;;;;;;;3.90;99.90;4.60;99711.00;;;;422898;23;83287;-94
2022/01/08 00:17:47;;;;;;;;;;;3.90;99.90;4.60;99718.00;;;;422178;23;94195;-93
2022/01/08 00:17:59;;;;;;;;;;;4.00;99.90;4.60;99720.00;;;;427051;22;83310;-94
2022/01/08 00:18:11;;;;;;;;;;;3.90;99.90;4.50;99722.00;;;;423568;22;95384;-94
2022/01/08 00:18:23;;;;;;;;;;;3.90;99.90;4.40;99721.00;;;;424552;22;83360;-93
2022/01/08 00:18:35;;;;;;;;;;;3.90;99.90;4.50;99717.00;;;;421814;23;94458;-93
2022/01/08 00:18:47;;;;;;;;;;;3.90;99.90;4.50;99716.00;;;;425292;22;82389;-95
2022/01/08 00:18:59;;;;;;;;;;;3.90;99.90;4.50;99724.00;;;;421349;23;94689;-93
2022/01/08 00:19:11;;;;;;;;;;;3.90;99.90;4.40;99715.00;;;;420631;23;83320;-94
2022/01/08 00:19:23;;;;;;;;;;;3.90;99.90;4.50;99720.00;;;;422010;23;94967;-94
2022/01/08 00:19:35;;;;;;;;;;;3.90;99.90;4.60;99717.00;;;;422570;23;82327;-93
2022/01/08 00:19:47;;;;;;;;;;;3.90;99.90;4.40;99727.00;;;;421686;23;96037;-94
2022/01/08 00:19:59;;;;;;;;;;;3.90;99.90;4.50;99724.00;;;;424520;22;83413;-93
2022/01/08 00:20:11;;;;;;;;;;;3.90;99.90;4.50;99723.00;;;;423663;22;94277;-93
2022/01/08 00:20:23;;;;;;;;;;;3.90;99.90;4.50;99716.00;;;;423228;23;83024;-93
2022/01/08 00:20:35;;;;;;;;;;;3.90;99.90;4.50;99721.00;;;;423610;22;96700;-94
2022/01/08 00:20:47;;;;;;;;;;;3.90;99.90;4.50;99705.00;;;;423171;23;83371;-94
2022/01/08 00:20:59;;;;;;;;;;;3.90;99.90;4.50;99716.00;;;;422084;23;96210;-93
2022/01/08 00:21:11;;;;;;;;;;;3.90;99.90;4.40;99714.00;;;;426947;22;82329;-94
2022/01/08 00:21:23;;;;;;;;;;;3.90;99.90;4.50;99720.00;;;;421557;23;97556;-94
2022/01/08 00:21:34;;;;;;;;;;;3.90;99.90;4.40;99708.00;;;;424806;22;83328;-93
2022/01/08 00:21:46;;;;;;;;;;;3.90;99.90;4.50;99726.00;;;;423300;22;96414;-93
2022/01/08 00:21:58;;;;;;;;;;;3.90;99.90;4.40;99714.00;;;;427318;22;83394;-93
2022/01/08 00:22:11;;;;;;;;;;;3.90;99.90;4.30;99706.00;;;;423860;22;95359;-94
2022/01/08 00:22:22;;;;;;;;;;;3.80;99.90;4.40;99712.00;;;;421152;23;82412;-92
2022/01/08 00:22:34;;;;;;;;;;;3.90;99.90;4.50;99713.00;;;;423623;22;94410;-93
2022/01/08 00:22:50;;;;;;;;;;;3.90;99.90;4.50;99715.00;;;;426267;22;83426;-93
2022/01/08 00:23:02;;;;;;;;;;;3.90;99.90;4.50;99718.00;;;;422227;23;93977;-93
2022/01/08 00:23:14;;;;;;;;;;;3.90;99.90;4.50;99712.00;;;;424605;22;83492;-93
2022/01/08 00:23:26;;;;;;;;;;;3.80;99.90;4.40;99714.00;;;;421997;23;98149;-93
2022/01/08 00:23:38;;;;;;;;;;;3.90;99.90;4.40;99710.00;;;;425240;22;83283;-92
2022/01/08 00:23:50;;;;;;;;;;;3.90;99.90;4.40;99715.00;;;;423923;22;94102;-93
2022/01/08 00:24:02;;;;;;;;;;;3.90;99.90;4.50;99709.00;;;;422795;23;83323;-94
2022/01/08 00:24:15;;;;;;;;;;;3.90;99.90;4.50;99715.00;;;;425584;22;96595;-93
2022/01/08 00:24:27;;;;;;;;;;;3.90;99.90;4.50;99711.00;;;;422247;23;83596;-93
2022/01/08 00:24:39;;;;;;;;;;;3.90;99.90;4.40;99713.00;;;;425661;22;96491;-93
2022/01/08 00:24:52;;;;;;;;;;;3.90;99.90;4.50;99710.00;;;;422543;23;83483;-94
2022/01/08 00:25:05;;;;;;;;;;;3.90;99.90;4.50;99711.00;;;;419798;23;94652;-93
2022/01/08 00:25:16;;;;;;;;;;;3.80;99.90;4.50;99713.00;;;;420625;23;82297;-93
2022/01/08 00:25:28;;;;;;;;;;;3.90;99.90;4.60;99711.00;;;;423338;22;96309;-93
2022/01/08 00:25:40;;;;;;;;;;;3.90;99.90;4.50;99711.00;;;;422561;23;82311;-92
2022/01/08 00:25:52;;;;;;;;;;;3.90;99.90;4.50;99714.00;;;;421877;23;93363;-93
2022/01/08 00:26:06;;;;;;;;;;;3.90;99.90;4.40;99711.00;;;;426961;22;83008;-93
2022/01/08 00:26:18;;;;;;;;;;;3.90;99.90;4.40;99710.00;;;;423016;22;93555;-93
2022/01/08 00:26:29;;;;;;;;;;;3.90;99.90;4.40;99701.00;;;;423196;23;83029;-93
2022/01/08 00:26:41;;;;;;;;;;;3.80;99.90;4.30;99712.00;;;;423974;22;93698;-93
2022/01/08 00:26:53;;;;;;;;;;;3.80;99.90;4.40;99711.00;;;;424980;22;82309;-93
2022/01/08 00:27:05;;;;;;;;;;;3.80;99.90;4.40;99713.00;;;;425908;22;94596;-93
2022/01/08 00:27:17;;;;;;;;;;;3.80;99.90;4.40;99707.00;;;;426574;22;83370;-94
2022/01/08 00:27:29;;;;;;;;;;;3.80;99.90;4.40;99713.00;;;;428469;22;92790;-93
2022/01/08 00:27:41;;;;;;;;;;;3.80;99.90;4.50;99711.00;;;;426680;22;83302;-95
2022/01/08 00:27:52;;;;;;;;;;;3.80;99.90;4.50;99705.00;;;;425721;22;96990;-93
2022/01/08 00:28:04;;;;;;;;;;;3.80;99.90;4.50;99704.00;;;;426810;22;83402;-93
2022/01/08 00:28:16;;;;;;;;;;;3.80;99.90;4.50;99714.00;;;;425818;22;96535;-93
2022/01/08 00:28:28;;;;;;;;;;;3.80;99.90;4.40;99705.00;;;;424922;22;82322;-95
2022/01/08 00:28:40;;;;;;;;;;;3.80;99.90;4.50;99713.00;;;;423957;22;93616;-93
2022/01/08 00:28:52;;;;;;;;;;;3.80;99.90;4.40;99706.00;;;;424924;22;82347;-93
2022/01/08 00:29:04;;;;;;;;;;;3.80;99.90;4.50;99715.00;;;;426470;22;92626;-92
2022/01/08 00:29:16;;;;;;;;;;;3.80;99.90;4.60;99712.00;;;;427295;22;83304;-93
2022/01/08 00:29:27;;;;;;;;;;;3.80;99.90;4.50;99711.00;;;;423404;22;97913;-94
2022/01/08 00:29:40;;;;;;;;;;;3.80;99.90;4.50;99715.00;;;;425205;22;83349;-92
2022/01/08 00:29:52;;;;;;;;;;;3.80;99.90;4.50;99711.00;;;;423927;22;93367;-93
2022/01/08 00:30:04;;;;;;;;;;;3.80;99.90;4.50;99706.00;;;;424637;22;82344;-93
2022/01/08 00:30:16;;;;;;;;;;;3.80;99.90;4.50;99706.00;;;;423961;22;94435;-93
2022/01/08 00:30:30;;;;;;;;;;;3.80;99.90;4.50;99706.00;;;;422900;23;83219;-94
2022/01/08 00:30:41;;;;;;;;;;;3.80;99.90;4.50;99706.00;;;;427694;22;96508;-93
2022/01/08 00:30:53;;;;;;;;;;;3.80;99.90;4.40;99710.00;;;;429126;22;83085;-93
2022/01/08 00:31:09;;;;;;;;;;;3.80;99.90;4.40;99704.00;;;;424319;22;93292;-94
2022/01/08 00:31:21;;;;;;;;;;;3.80;99.90;4.40;99704.00;;;;420490;23;82519;-93
2022/01/08 00:31:33;;;;;;;;;;;3.80;99.90;4.40;99705.00;;;;427678;22;97757;-93
2022/01/08 00:31:45;;;;;;;;;;;3.80;99.90;4.30;99710.00;;;;423087;23;83160;-93
2022/01/08 00:31:57;;;;;;;;;;;3.80;99.90;4.30;99706.00;;;;423915;22;93431;-94
2022/01/08 00:32:09;;;;;;;;;;;3.80;99.90;4.40;99714.00;;;;426351;22;83312;-93
2022/01/08 00:32:21;;;;;;;;;;;3.80;99.90;4.40;99696.00;;;;424086;22;92399;-93
2022/01/08 00:32:33;;;;;;;;;;;3.80;99.90;4.50;99706.00;;;;424578;22;83206;-94
2022/01/08 00:32:45;;;;;;;;;;;3.80;99.90;4.50;99694.00;;;;421873;23;93252;-93
2022/01/08 00:32:59;;;;;;;;;;;3.80;99.90;4.50;99701.00;;;;424726;22;83345;-95
2022/01/08 00:33:11;;;;;;;;;;;3.80;99.90;4.50;99710.00;;;;427912;22;95235;-93
2022/01/08 00:33:23;;;;;;;;;;;3.80;99.90;4.50;99697.00;;;;420872;23;82289;-94
2022/01/08 00:33:34;;;;;;;;;;;3.80;99.90;4.50;99710.00;;;;424200;22;94024;-94
2022/01/08 00:33:49;;;;;;;;;;;3.80;99.90;4.40;99705.00;;;;426518;22;83488;-94
2022/01/08 00:34:01;;;;;;;;;;;3.80;99.90;4.40;99704.00;;;;422242;23;92357;-93
2022/01/08 00:34:12;;;;;;;;;;;3.80;99.90;4.30;99708.00;;;;426718;22;83275;-94
2022/01/08 00:34:24;;;;;;;;;;;3.80;99.90;4.40;99707.00;;;;426333;22;94181;-94
2022/01/08 00:34:36;;;;;;;;;;;3.80;99.90;4.40;99712.00;;;;424862;22;83312;-94
2022/01/08 00:34:48;;;;;;;;;;;3.80;99.90;4.30;99711.00;;;;421274;23;92155;-94
2022/01/08 00:35:00;;;;;;;;;;;3.80;99.90;4.40;99703.00;;;;423183;23;82372;-95
2022/01/08 00:35:12;;;;;;;;;;;3.80;99.90;4.30;99711.00;;;;421624;23;95347;-96
2022/01/08 00:35:26;;;;;;;;;;;3.80;99.90;4.40;99707.00;;;;423158;23;83543;-94
2022/01/08 00:35:37;;;;;;;;;;;3.70;99.90;4.40;99700.00;;;;423952;22;94397;-95
2022/01/08 00:35:49;;;;;;;;;;;3.70;99.90;4.40;99709.00;;;;422160;23;83223;-95
2022/01/08 00:36:01;;;;;;;;;;;3.80;99.90;4.50;99707.00;;;;420111;23;93791;-96
2022/01/08 00:36:13;;;;;;;;;;;3.80;99.90;4.50;99709.00;;;;422735;23;83200;-94
2022/01/08 00:36:25;;;;;;;;;;;3.80;99.90;4.50;99703.00;;;;423642;22;93454;-95
2022/01/08 00:36:36;;;;;;;;;;;3.80;99.90;4.40;99700.00;;;;424966;22;82209;-94
2022/01/08 00:36:48;;;;;;;;;;;3.80;99.90;4.50;99701.00;;;;423716;22;95239;-95
2022/01/08 00:37:00;;;;;;;;;;;3.80;99.90;4.40;99698.00;;;;426553;22;83294;-96
2022/01/08 00:37:12;;;;;;;;;;;3.80;99.90;4.40;99702.00;;;;425732;22;95823;-95
2022/01/08 00:37:24;;;;;;;;;;;3.80;99.90;4.40;99699.00;;;;424859;22;83311;-95
2022/01/08 00:37:37;;;;;;;;;;;3.80;99.90;4.50;99699.00;;;;420208;23;93072;-95
2022/01/08 00:37:50;;;;;;;;;;;3.80;99.90;4.40;99705.00;;;;424850;22;82181;-94
2022/01/08 00:38:02;;;;;;;;;;;3.80;99.90;4.30;99702.00;;;;424395;22;92766;-95
2022/01/08 00:38:14;;;;;;;;;;;3.80;99.90;4.40;99706.00;;;;422033;23;82506;-95
2022/01/08 00:38:26;;;;;;;;;;;3.80;99.90;4.30;99699.00;;;;424218;22;92639;-94
2022/01/08 00:38:38;;;;;;;;;;;3.80;99.90;4.30;99707.00;;;;424416;22;83448;-95
2022/01/08 00:38:50;;;;;;;;;;;3.80;99.90;4.30;99705.00;;;;423820;22;92671;-95
2022/01/08 00:39:03;;;;;;;;;;;3.80;99.90;4.40;99705.00;;;;428796;22;83309;-94
2022/01/08 00:39:14;;;;;;;;;;;3.80;99.90;4.40;99706.00;;;;422225;23;93099;-95
2022/01/08 00:39:26;;;;;;;;;;;3.80;99.90;4.50;99710.00;;;;422829;23;82279;-94
2022/01/08 00:39:39;;;;;;;;;;;3.80;99.90;4.50;99708.00;;;;423749;22;95524;-92
2022/01/08 00:39:51;;;;;;;;;;;3.80;99.90;4.50;99704.00;;;;429058;22;82258;-95
2022/01/08 00:40:07;;;;;;;;;;;3.80;99.90;4.40;99703.00;;;;423541;22;95346;-96
2022/01/08 00:40:18;;;;;;;;;;;3.80;99.90;4.40;99706.00;;;;421923;23;82518;-94
2022/01/08 00:40:30;;;;;;;;;;;3.80;99.90;4.40;99703.00;;;;423574;22;94079;-94
2022/01/08 00:40:42;;;;;;;;;;;3.80;99.90;4.30;99696.00;;;;424650;22;83406;-93
2022/01/08 00:40:54;;;;;;;;;;;3.80;99.90;4.30;99701.00;;;;421800;23;94439;-94
2022/01/08 00:41:05;;;;;;;;;;;3.70;99.90;4.30;99698.00;;;;424514;22;83511;-94
2022/01/08 00:41:17;;;;;;;;;;;3.80;99.90;4.40;99694.00;;;;423310;22;95799;-94
2022/01/08 00:41:29;;;;;;;;;;;3.80;99.90;4.40;99699.00;;;;426288;22;82287;-94
2022/01/08 00:41:41;;;;;;;;;;;3.80;99.90;4.40;99692.00;;;;423610;22;95021;-95
2022/01/08 00:41:53;;;;;;;;;;;3.80;99.90;4.30;99695.00;;;;423080;23;83082;-93
2022/01/08 00:42:05;;;;;;;;;;;3.70;99.90;4.40;99701.00;;;;424001;22;92625;-93
2022/01/08 00:42:16;;;;;;;;;;;3.70;99.90;4.40;99695.00;;;;426621;22;82541;-94
2022/01/08 00:42:28;;;;;;;;;;;3.80;99.90;4.40;99702.00;;;;423912;22;93455;-93
2022/01/08 00:42:40;;;;;;;;;;;3.70;99.90;4.40;99699.00;;;;426733;22;82472;-93
2022/01/08 00:42:52;;;;;;;;;;;3.70;99.90;4.40;99703.00;;;;423367;22;95245;-93
2022/01/08 00:43:04;;;;;;;;;;;3.70;99.90;4.30;99697.00;;;;424674;22;83229;-93
2022/01/08 00:43:16;;;;;;;;;;;3.70;99.90;4.30;99705.00;;;;425790;22;96856;-94
2022/01/08 00:43:28;;;;;;;;;;;3.70;99.90;4.30;99704.00;;;;423421;23;82420;-92
2022/01/08 00:43:40;;;;;;;;;;;3.70;99.90;4.30;99700.00;;;;422106;23;95974;-95
2022/01/08 00:43:52;;;;;;;;;;;3.70;99.90;4.30;99693.00;;;;423660;23;82439;-92
2022/01/08 00:44:19;;;;;;;;;;;3.70;99.90;4.30;99700.00;;;;420470;23;95560;-93
2022/01/08 00:44:31;;;;;;;;;;;3.70;99.90;4.30;99683.00;;;;423877;23;83410;-92
2022/01/08 00:44:47;;;;;;;;;;;3.70;99.90;4.30;99689.00;;;;426500;22;96202;-93
2022/01/08 00:45:01;;;;;;;;;;;3.70;99.90;4.30;99685.00;;;;423373;23;82322;-93
2022/01/08 00:45:13;;;;;;;;;;;3.70;99.90;4.30;99691.00;;;;427100;22;95309;-94
2022/01/08 00:45:25;;;;;;;;;;;3.70;99.90;4.20;99695.00;;;;423099;23;82400;-93
2022/01/08 00:45:37;;;;;;;;;;;3.70;99.90;4.30;99688.00;;;;421946;23;94460;-94
2022/01/08 00:45:49;;;;;;;;;;;3.70;99.90;4.30;99682.00;;;;422514;23;83289;-93
2022/01/08 00:46:01;;;;;;;;;;;3.70;99.90;4.30;99689.00;;;;421607;23;97803;-94
2022/01/08 00:46:12;;;;;;;;;;;3.70;99.90;4.30;99686.00;;;;424623;22;83366;-93
2022/01/08 00:46:24;;;;;;;;;;;3.70;99.90;4.30;99689.00;;;;423720;22;96309;-94
2022/01/08 00:46:36;;;;;;;;;;;3.70;99.90;4.30;99681.00;;;;428283;22;82564;-93
2022/01/08 00:46:48;;;;;;;;;;;3.70;99.90;4.40;99689.00;;;;419998;23;96646;-93
2022/01/08 00:46:59;;;;;;;;;;;3.70;99.90;4.30;99691.00;;;;424993;22;82416;-94
2022/01/08 00:47:11;;;;;;;;;;;3.70;99.90;4.30;99678.00;;;;424027;22;96487;-93
2022/01/08 00:47:23;;;;;;;;;;;3.70;99.90;4.30;99682.00;;;;423098;23;82491;-93
2022/01/08 00:47:36;;;;;;;;;;;3.70;99.90;4.30;99680.00;;;;423563;22;95931;-93
2022/01/08 00:47:48;;;;;;;;;;;3.70;99.90;4.30;99685.00;;;;422740;23;82464;-94
2022/01/08 00:47:59;;;;;;;;;;;3.70;99.90;4.30;99682.00;;;;423141;22;96539;-93
2022/01/08 00:48:11;;;;;;;;;;;3.70;99.90;4.30;99684.00;;;;424699;22;82325;-93
2022/01/08 00:48:23;;;;;;;;;;;3.70;99.90;4.30;99683.00;;;;424107;22;95798;-93
2022/01/08 00:48:35;;;;;;;;;;;3.70;99.90;4.30;99684.00;;;;420851;23;82482;-93
2022/01/08 00:48:47;;;;;;;;;;;3.70;99.90;4.20;99684.00;;;;423665;22;96527;-94
2022/01/08 00:48:59;;;;;;;;;;;3.70;99.90;4.20;99681.00;;;;424685;22;83358;-93
2022/01/08 00:49:10;;;;;;;;;;;3.70;99.90;4.20;99678.00;;;;423762;22;96529;-93
2022/01/08 00:49:24;;;;;;;;;;;3.70;99.90;4.20;99679.00;;;;423089;23;82433;-93
2022/01/08 00:49:37;;;;;;;;;;;3.70;99.90;4.20;99680.00;;;;420143;23;96218;-93
2022/01/08 00:49:49;;;;;;;;;;;3.70;99.90;4.20;99682.00;;;;424667;22;83436;-93
2022/01/08 00:50:01;;;;;;;;;;;3.70;99.90;4.10;99683.00;;;;423981;22;96659;-93
2022/01/08 00:50:12;;;;;;;;;;;3.60;99.90;4.20;99679.00;;;;421004;23;82497;-93
2022/01/08 00:50:24;;;;;;;;;;;3.60;99.90;4.20;99683.00;;;;420001;23;96311;-93
2022/01/08 00:50:36;;;;;;;;;;;3.60;99.90;4.10;99677.00;;;;424573;22;83277;-93
2022/01/08 00:50:48;;;;;;;;;;;3.60;99.90;4.20;99675.00;;;;422094;23;95304;-92
2022/01/08 00:51:02;;;;;;;;;;;3.60;99.90;4.30;99677.00;;;;425172;22;82442;-93
2022/01/08 00:51:13;;;;;;;;;;;3.70;99.90;4.20;99667.00;;;;423644;22;96742;-93
2022/01/08 00:51:25;;;;;;;;;;;3.60;99.90;4.20;99678.00;;;;428822;22;83126;-92
2022/01/08 00:51:37;;;;;;;;;;;3.60;99.90;4.20;99677.00;;;;423792;22;95123;-93
2022/01/08 00:51:49;;;;;;;;;;;3.60;99.90;4.20;99674.00;;;;424503;22;83460;-93
2022/01/08 00:52:01;;;;;;;;;;;3.60;99.90;4.30;99685.00;;;;424069;22;97355;-93
2022/01/08 00:52:13;;;;;;;;;;;3.60;99.90;4.30;99679.00;;;;423096;23;83224;-93
2022/01/08 00:52:25;;;;;;;;;;;3.60;99.90;4.20;99677.00;;;;423704;22;96828;-92
2022/01/08 00:52:36;;;;;;;;;;;3.60;99.90;4.20;99681.00;;;;424850;22;82311;-93
2022/01/08 00:52:48;;;;;;;;;;;3.60;99.90;4.20;99682.00;;;;421618;23;96442;-92
2022/01/08 00:53:00;;;;;;;;;;;3.60;99.90;4.20;99686.00;;;;423011;23;83217;-93
2022/01/08 00:53:12;;;;;;;;;;;3.60;99.90;4.20;99683.00;;;;425964;22;95686;-93
2022/01/08 00:53:23;;;;;;;;;;;3.60;99.90;4.20;99676.00;;;;424607;22;83443;-93
2022/01/08 00:53:35;;;;;;;;;;;3.60;99.90;4.10;99677.00;;;;421531;23;96692;-92
2022/01/08 00:53:47;;;;;;;;;;;3.60;99.90;4.20;99672.00;;;;422744;23;83242;-93
2022/01/08 00:53:59;;;;;;;;;;;3.60;99.90;4.20;99675.00;;;;424063;22;96293;-93
2022/01/08 00:54:10;;;;;;;;;;;3.60;99.90;4.30;99682.00;;;;424756;22;82507;-93
2022/01/08 00:54:23;;;;;;;;;;;3.60;99.90;4.20;99672.00;;;;424064;22;96609;-93
2022/01/08 00:54:36;;;;;;;;;;;3.60;99.90;4.30;99671.00;;;;422688;23;83400;-92
2022/01/08 00:54:49;;;;;;;;;;;3.60;99.90;4.30;99676.00;;;;423352;22;95751;-91
2022/01/08 00:55:00;;;;;;;;;;;3.60;99.90;4.30;99674.00;;;;425030;22;82262;-93
2022/01/08 00:55:13;;;;;;;;;;;3.60;99.90;4.20;99677.00;;;;421910;23;95640;-94
2022/01/08 00:55:25;;;;;;;;;;;3.60;99.90;4.20;99670.00;;;;424685;22;82489;-93
2022/01/08 00:55:36;;;;;;;;;;;3.60;99.90;4.30;99669.00;;;;422271;23;95304;-94
2022/01/08 00:55:48;;;;;;;;;;;3.60;99.90;4.20;99669.00;;;;423107;23;83392;-93
2022/01/08 00:56:00;;;;;;;;;;;3.60;99.90;4.20;99667.00;;;;421864;23;97864;-93
2022/01/08 00:56:14;;;;;;;;;;;3.60;99.90;4.20;99673.00;;;;420918;23;83476;-93
2022/01/08 00:56:25;;;;;;;;;;;3.60;99.90;4.20;99667.00;;;;420172;23;96186;-93
2022/01/08 00:56:37;;;;;;;;;;;3.60;99.90;4.20;99665.00;;;;423156;23;83325;-94
2022/01/08 00:56:50;;;;;;;;;;;3.60;99.90;4.20;99675.00;;;;421851;23;96272;-93
2022/01/08 00:57:03;;;;;;;;;;;3.60;99.90;4.20;99671.00;;;;422743;23;82300;-92
2022/01/08 00:57:15;;;;;;;;;;;3.60;99.90;4.20;99667.00;;;;421906;23;95805;-91
2022/01/08 00:57:27;;;;;;;;;;;3.60;99.90;4.20;99671.00;;;;423136;23;83377;-92
2022/01/08 00:57:38;;;;;;;;;;;3.60;99.90;4.20;99668.00;;;;421869;23;96566;-92
2022/01/08 00:57:50;;;;;;;;;;;3.60;99.90;4.20;99664.00;;;;423195;23;82420;-93
2022/01/08 00:58:02;;;;;;;;;;;3.60;99.90;4.30;99671.00;;;;423841;22;97542;-92
2022/01/08 00:58:14;;;;;;;;;;;3.60;99.90;4.20;99667.00;;;;424824;22;83341;-93
2022/01/08 00:58:25;;;;;;;;;;;3.60;99.90;4.20;99659.00;;;;421767;23;96554;-92
2022/01/08 00:58:37;;;;;;;;;;;3.60;99.90;4.30;99666.00;;;;422828;23;83381;-94
2022/01/08 00:58:49;;;;;;;;;;;3.60;99.90;4.30;99662.00;;;;422153;23;95955;-92
2022/01/08 00:59:03;;;;;;;;;;;3.60;99.90;4.20;99661.00;;;;424931;22;83284;-93
2022/01/08 00:59:14;;;;;;;;;;;3.60;99.90;4.20;99664.00;;;;423766;22;96622;-93
2022/01/08 00:59:26;;;;;;;;;;;3.60;99.90;4.20;99659.00;;;;426889;22;82402;-92
2022/01/08 00:59:38;;;;;;;;;;;3.60;99.90;4.20;99661.00;;;;421763;23;96635;-93
2022/01/08 00:59:50;;;;;;;;;;;3.60;99.90;4.20;99671.00;;;;424970;22;83452;-93
2022/01/08 01:00:07;;;;;;;;;;;3.60;99.90;4.10;99668.00;;;;414938;23;96197;-93
2022/01/08 01:00:19;;;;;;;;;;;3.60;99.90;4.20;99663.00;;;;423070;23;82346;-92
2022/01/08 01:00:31;;;;;;;;;;;3.60;99.90;4.20;99666.00;;;;426589;22;93812;-93
2022/01/08 01:00:42;;;;;;;;;;;3.60;99.90;4.20;99658.00;;;;424763;22;83390;-92
2022/01/08 01:00:54;;;;;;;;;;;3.60;99.90;4.20;99655.00;;;;423929;22;95719;-92
2022/01/08 01:01:06;;;;;;;;;;;3.60;99.90;4.10;99664.00;;;;424814;22;83357;-92
2022/01/08 01:01:18;;;;;;;;;;;3.60;99.90;4.10;99665.00;;;;424083;22;97072;-93
2022/01/08 01:01:30;;;;;;;;;;;3.60;99.90;4.20;99658.00;;;;423126;23;83201;-92
2022/01/08 01:01:42;;;;;;;;;;;3.60;99.90;4.20;99657.00;;;;422220;23;96421;-93
2022/01/08 01:01:54;;;;;;;;;;;3.60;99.90;4.10;99667.00;;;;423006;23;82449;-93
2022/01/08 01:02:05;;;;;;;;;;;3.60;99.90;4.20;99659.00;;;;421889;23;97534;-93